Terminal Aerodrome Forecast
Issued by NWS

Home | Current Version | Previous Version | Text Only | Print | Product List | Glossary On
Versions: 1 2 3 4 5 6 7 8 9 10 11 12 13 14 15
996
FTUS42 KMLB 241134
TAFISM
TAF
KISM 241134Z 2412/2512 08003KT P6SM FEW050 SCT250
     FM241400 11007KT P6SM SCT040 SCT250
     FM242000 09013KT P6SM SCT050 SCT250
     FM250100 10005KT P6SM SCT060 SCT250=

USA.gov is the U.S. government's official web portal to all federal, state and local government web resources and services.